Time;durP1;ratioP1;P1;durP2;ratioP2;P2;SDS_P1;SDS_P2;PMS_P1;PMS_P2;Temp;Humidity;BMP_temperature;BMP_pressure;BME280_temperature;BME280_humidity;BME280_pressure;Samples;Min_cycle;Max_cycle;Signal;HPM_P1;HPM_P2
2021/04/09 04:12:21;;;;;;;10.25;2.17;;;-0.80;99.90;;;;;;5037530;28;20057;-66
2021/04/09 04:14:46;;;;;;;7.05;1.58;;;-0.70;99.90;;;;;;5034882;28;20041;-66
2021/04/09 04:17:13;;;;;;;11.23;1.70;;;-0.60;99.90;;;;;;5031412;28;20136;-66
2021/04/09 04:19:38;;;;;;;20.40;1.80;;;-0.60;99.90;;;;;;5033711;28;20026;-66
2021/04/09 04:22:04;;;;;;;14.35;1.73;;;-0.60;99.90;;;;;;5030965;28;20021;-66
2021/04/09 04:24:30;;;;;;;10.77;1.77;;;-0.60;99.90;;;;;;5046346;28;20115;-66
2021/04/09 04:26:55;;;;;;;31.08;2.80;;;-0.60;99.90;;;;;;5050761;28;20021;-66
2021/04/09 04:29:21;;;;;;;70.85;3.50;;;-0.50;99.90;;;;;;5038780;28;20116;-66
2021/04/09 04:31:47;;;;;;;27.58;2.45;;;-0.50;99.90;;;;;;5033362;28;20028;-72
2021/04/09 04:34:13;;;;;;;10.38;1.80;;;-0.50;99.90;;;;;;5030808;28;20025;-66
2021/04/09 04:36:38;;;;;;;6.88;1.15;;;-0.40;99.90;;;;;;5041570;28;20433;-64
2021/04/09 04:39:05;;;;;;;14.25;1.40;;;-0.40;99.90;;;;;;5036842;28;20024;-66
2021/04/09 04:41:32;;;;;;;16.90;1.73;;;1.10;99.90;;;;;;5037688;28;20028;-65
2021/04/09 04:43:57;;;;;;;10.52;1.50;;;1.00;99.90;;;;;;5030504;28;20033;-68
2021/04/09 04:46:24;;;;;;;10.25;1.55;;;0.60;99.90;;;;;;5041347;28;20033;-68
2021/04/09 04:48:50;;;;;;;5.18;1.33;;;0.40;99.90;;;;;;5030570;28;20073;-67
2021/04/09 04:51:16;;;;;;;13.60;1.52;;;0.20;99.90;;;;;;5048781;28;20055;-68
2021/04/09 04:53:42;;;;;;;9.77;1.20;;;0.10;99.90;;;;;;5044549;28;20025;-68
2021/04/09 04:56:07;;;;;;;11.77;1.88;;;0.10;99.90;;;;;;5040368;28;20017;-68
2021/04/09 04:58:33;;;;;;;7.90;1.33;;;0.00;99.90;;;;;;5053301;28;20021;-70
2021/04/09 05:00:59;;;;;;;7.18;1.05;;;0.10;99.90;;;;;;5047080;28;20432;-70
2021/04/09 05:03:24;;;;;;;5.13;1.33;;;0.10;99.90;;;;;;5051581;28;20110;-70
2021/04/09 05:05:50;;;;;;;9.52;1.58;;;0.10;99.90;;;;;;5045594;28;20029;-70
2021/04/09 05:08:16;;;;;;;7.40;1.67;;;0.10;99.90;;;;;;5045643;28;20040;-68
2021/04/09 05:10:41;;;;;;;6.20;1.35;;;0.10;99.90;;;;;;5050243;28;20033;-69
2021/04/09 05:13:07;;;;;;;12.40;1.60;;;0.10;99.90;;;;;;5046696;28;20021;-69
2021/04/09 05:15:33;;;;;;;7.90;1.30;;;0.20;99.90;;;;;;5046602;28;20025;-69
2021/04/09 05:17:59;;;;;;;9.85;1.40;;;0.20;99.90;;;;;;5046994;28;20051;-68
2021/04/09 05:20:24;;;;;;;5.75;1.10;;;0.20;99.90;;;;;;5054283;28;20120;-69
2021/04/09 05:22:50;;;;;;;11.00;1.35;;;0.20;99.90;;;;;;5053918;28;20056;-68
2021/04/09 05:25:16;;;;;;;7.30;1.67;;;0.30;99.90;;;;;;5054099;28;20100;-68
2021/04/09 05:27:41;;;;;;;8.73;1.33;;;0.50;99.90;;;;;;5043211;28;20041;-68
2021/04/09 05:30:08;;;;;;;6.47;1.33;;;0.50;99.90;;;;;;5036124;28;20034;-68
2021/04/09 05:32:33;;;;;;;15.60;1.92;;;0.50;99.90;;;;;;5053676;28;20489;-69
2021/04/09 05:34:59;;;;;;;9.63;1.30;;;0.50;99.90;;;;;;5053586;28;20045;-68
2021/04/09 05:37:25;;;;;;;10.50;1.58;;;0.50;99.90;;;;;;5053703;28;20492;-68
2021/04/09 05:39:51;;;;;;;4.50;1.00;;;0.50;99.90;;;;;;5053762;28;20025;-68
2021/04/09 05:42:16;;;;;;;7.10;1.38;;;0.50;99.90;;;;;;5053513;28;20377;-68
2021/04/09 05:44:43;;;;;;;4.78;1.05;;;0.50;99.90;;;;;;5039458;28;20052;-69
2021/04/09 05:47:09;;;;;;;5.03;1.15;;;0.50;99.90;;;;;;5045163;28;20040;-68
2021/04/09 05:49:35;;;;;;;8.75;1.23;;;0.60;99.90;;;;;;5048453;28;20029;-70
2021/04/09 05:52:03;;;;;;;11.75;1.13;;;0.60;99.90;;;;;;5041713;28;20024;-71
2021/04/09 05:54:29;;;;;;;8.73;1.00;;;0.60;99.90;;;;;;5053199;28;20025;-72
2021/04/09 05:56:55;;;;;;;7.10;1.10;;;0.70;99.90;;;;;;5053253;28;20013;-72
2021/04/09 05:59:21;;;;;;;7.30;1.40;;;0.70;99.90;;;;;;5053371;28;20037;-73
2021/04/09 06:01:47;;;;;;;8.50;0.82;;;0.70;99.90;;;;;;5051937;28;20040;-71
2021/04/09 06:04:12;;;;;;;9.75;1.15;;;0.80;99.90;;;;;;5037473;28;20430;-69
2021/04/09 06:06:38;;;;;;;7.50;0.95;;;0.90;99.90;;;;;;5051993;28;20473;-67
2021/04/09 06:09:04;;;;;;;9.90;1.02;;;1.00;99.90;;;;;;5052582;28;20021;-68
2021/04/09 06:11:31;;;;;;;2.90;1.08;;;1.00;99.90;;;;;;5036377;28;20060;-69
2021/04/09 06:13:57;;;;;;;2.28;0.85;;;1.10;99.90;;;;;;5037763;28;20025;-67
2021/04/09 06:16:23;;;;;;;9.30;1.20;;;1.10;99.90;;;;;;5035763;28;20041;-69
2021/04/09 06:18:49;;;;;;;3.95;1.48;;;1.10;99.90;;;;;;5034888;28;20025;-69
2021/04/09 06:21:15;;;;;;;12.95;1.65;;;1.10;99.90;;;;;;5052542;28;20024;-70
2021/04/09 06:23:40;;;;;;;5.07;1.20;;;1.10;99.90;;;;;;5051356;28;20143;-69
2021/04/09 06:26:06;;;;;;;6.90;1.25;;;1.10;99.90;;;;;;5052616;28;20021;-69
2021/04/09 06:28:33;;;;;;;9.50;1.73;;;1.10;99.90;;;;;;5032701;28;20029;-67
2021/04/09 06:30:59;;;;;;;6.07;1.33;;;1.20;99.90;;;;;;5042906;28;20040;-69
2021/04/09 06:33:25;;;;;;;8.23;1.30;;;1.20;99.90;;;;;;5053150;28;20025;-70
2021/04/09 06:35:50;;;;;;;1.85;1.08;;;1.10;99.90;;;;;;5052452;28;20028;-69
2021/04/09 06:38:16;;;;;;;8.10;1.38;;;1.10;99.90;;;;;;5052464;28;20504;-69
2021/04/09 06:40:42;;;;;;;7.20;1.08;;;1.10;99.90;;;;;;5052613;28;20017;-71
2021/04/09 06:43:07;;;;;;;4.82;1.10;;;1.00;99.90;;;;;;5052241;28;20029;-70
2021/04/09 06:45:34;;;;;;;5.20;1.30;;;1.00;99.90;;;;;;5052191;28;20051;-70
2021/04/09 06:48:00;;;;;;;7.32;1.13;;;0.90;99.90;;;;;;5052544;28;20032;-70
2021/04/09 06:50:25;;;;;;;4.68;1.15;;;0.90;99.90;;;;;;5038040;28;20396;-70
2021/04/09 06:52:56;;;;;;;5.97;1.10;;;0.90;99.90;;;;;;5037760;28;20108;-70
2021/04/09 06:55:23;;;;;;;4.85;1.17;;;0.90;99.90;;;;;;5052511;28;20025;-70
2021/04/09 06:57:50;;;;;;;5.95;1.13;;;0.90;99.90;;;;;;5038463;28;20017;-70
2021/04/09 07:00:16;;;;;;;2.55;0.90;;;0.90;99.90;;;;;;5051674;28;20037;-70
2021/04/09 07:02:44;;;;;;;2.03;1.05;;;0.90;99.90;;;;;;5051832;28;20021;-70
2021/04/09 07:05:14;;;;;;;4.38;0.98;;;0.90;99.90;;;;;;5051851;28;20035;-70
2021/04/09 07:07:40;;;;;;;;;;;0.90;99.90;;;;;;5052376;28;20056;-69
2021/04/09 07:10:08;;;;;;;6.07;1.33;;;0.90;99.90;;;;;;5051842;28;20387;-71
2021/04/09 07:12:34;;;;;;;4.75;1.08;;;1.00;99.90;;;;;;5051837;28;20041;-70
2021/04/09 07:15:00;;;;;;;4.30;1.05;;;0.90;99.90;;;;;;5051392;28;20025;-70
2021/04/09 07:17:31;;;;;;;2.92;1.10;;;0.90;99.90;;;;;;5050542;28;20023;-68
2021/04/09 07:20:19;;;;;;;5.65;1.20;;;1.00;99.90;;;;;;5051725;28;20408;-65
2021/04/09 07:22:49;;;;;;;2.70;1.20;;;1.00;99.90;;;;;;5051201;28;20029;-68
2021/04/09 07:25:19;;;;;;;3.00;1.30;;;1.10;99.90;;;;;;5052343;28;20025;-68
2021/04/09 07:27:47;;;;;;;3.90;1.88;;;1.00;99.90;;;;;;5052013;28;20029;-68
2021/04/09 07:30:19;;;;;;;5.03;1.00;;;1.00;99.90;;;;;;5051804;28;20530;-68
2021/04/09 07:32:45;;;;;;;5.50;1.20;;;1.00;99.90;;;;;;5051833;28;20032;-68
2021/04/09 07:35:15;;;;;;;1.65;1.10;;;1.00;99.90;;;;;;5052370;28;20037;-68
2021/04/09 07:37:58;;;;;;;4.40;1.30;;;1.00;99.90;;;;;;5051981;28;20028;-69
2021/04/09 07:40:32;;;;;;;1.58;1.20;;;1.00;99.90;;;;;;5052352;28;20427;-68
2021/04/09 07:42:59;;;;;;;3.03;1.35;;;1.00;99.90;;;;;;5051857;28;20025;-68
2021/04/09 07:45:29;;;;;;;5.43;1.50;;;1.00;99.90;;;;;;5051997;28;20025;-68
2021/04/09 07:48:05;;;;;;;;;;;1.00;99.90;;;;;;5052337;28;20036;-68
2021/04/09 07:50:33;;;;;;;5.18;1.10;;;0.90;99.90;;;;;;5051915;28;19952;-68
2021/04/09 07:52:59;;;;;;;3.75;1.25;;;1.00;99.90;;;;;;5051852;28;20021;-68
2021/04/09 07:55:31;;;;;;;2.00;1.08;;;0.90;99.90;;;;;;5051925;28;20073;-68
2021/04/09 07:58:29;;;;;;;6.50;1.40;;;0.90;99.90;;;;;;5052153;28;20087;-68
2021/04/09 08:00:55;;;;;;;2.92;1.10;;;1.00;99.90;;;;;;5051653;28;20025;-68
2021/04/09 08:03:37;;;;;;;2.72;1.30;;;1.00;99.90;;;;;;5051834;28;20028;-68
2021/04/09 08:06:06;;;;;;;4.78;1.48;;;1.00;99.90;;;;;;5051710;28;20580;-68
2021/04/09 08:08:32;;;;;;;2.25;1.45;;;1.00;99.90;;;;;;5051966;28;20075;-68
2021/04/09 08:11:30;;;;;;;6.47;1.30;;;1.00;99.90;;;;;;5051183;28;20049;-64
2021/04/09 08:14:13;;;;;;;7.43;1.90;;;1.00;99.90;;;;;;5051174;28;20095;-69
2021/04/09 08:16:41;;;;;;;8.48;1.80;;;1.20;99.90;;;;;;5051604;28;20021;-69
2021/04/09 08:19:07;;;;;;;4.43;1.15;;;1.10;99.90;;;;;;5051533;28;20025;-70
2021/04/09 08:21:41;;;;;;;3.03;1.33;;;1.10;99.90;;;;;;5051663;28;20547;-70
2021/04/09 08:24:09;;;;;;;3.83;1.38;;;1.10;99.90;;;;;;5051551;28;20032;-70
2021/04/09 08:26:35;;;;;;;6.00;1.50;;;1.10;99.90;;;;;;5051415;28;20377;-70
2021/04/09 08:29:03;;;;;;;4.05;1.20;;;1.10;99.90;;;;;;5051310;28;20029;-70
2021/04/09 08:31:31;;;;;;;7.00;1.52;;;1.20;99.90;;;;;;5053114;28;20111;-68
2021/04/09 08:33:58;;;;;;;5.75;1.77;;;1.20;99.90;;;;;;5055587;28;20492;-68
2021/04/09 08:36:25;;;;;;;3.20;1.40;;;1.20;99.90;;;;;;5055329;28;20396;-68
2021/04/09 08:38:52;;;;;;;8.00;1.85;;;1.20;99.90;;;;;;5058080;28;20033;-69
2021/04/09 08:41:18;;;;;;;3.58;1.40;;;1.20;99.90;;;;;;5065117;28;20028;-69
2021/04/09 08:43:45;;;;;;;8.75;2.05;;;1.20;99.90;;;;;;5065072;28;20079;-68
2021/04/09 08:46:10;;;;;;;5.00;1.30;;;1.20;99.90;;;;;;5063677;28;20021;-68
2021/04/09 08:48:38;;;;;;;3.10;1.25;;;1.20;99.90;;;;;;5065054;28;20023;-68
2021/04/09 08:51:06;;;;;;;14.35;1.60;;;1.20;99.90;;;;;;5056613;28;20083;-68
2021/04/09 08:53:32;;;;;;;4.43;1.30;;;1.20;99.90;;;;;;5054354;28;20481;-68
2021/04/09 08:55:58;;;;;;;2.67;1.33;;;1.20;99.90;;;;;;5054226;28;20055;-68
2021/04/09 08:58:24;;;;;;;4.10;1.27;;;1.20;99.90;;;;;;5054384;28;20021;-67
2021/04/09 09:00:52;;;;;;;4.50;1.60;;;1.20;99.90;;;;;;5054255;28;20099;-67
2021/04/09 09:03:25;;;;;;;5.75;1.60;;;1.20;99.90;;;;;;5054057;28;20129;-68
2021/04/09 09:06:00;;;;;;;6.18;1.42;;;1.20;99.90;;;;;;5052011;28;20021;-68
2021/04/09 09:08:50;;;;;;;3.17;1.55;;;1.20;99.90;;;;;;5051476;28;20095;-68
2021/04/09 09:11:53;;;;;;;3.45;1.45;;;1.20;99.90;;;;;;5034004;28;20049;-69
2021/04/09 09:14:34;;;;;;;2.40;1.10;;;1.10;99.90;;;;;;5034786;28;20036;-69
2021/04/09 09:17:21;;;;;;;3.75;1.38;;;1.10;99.90;;;;;;5034657;28;20055;-69
2021/04/09 09:20:08;;;;;;;3.25;1.30;;;1.10;99.90;;;;;;5034603;28;20504;-69
2021/04/09 09:22:53;;;;;;;2.50;1.15;;;1.10;99.90;;;;;;5034671;28;20034;-69
2021/04/09 09:25:41;;;;;;;2.95;1.30;;;1.10;99.90;;;;;;5049861;28;20033;-69
2021/04/09 09:28:15;;;;;;;3.65;1.48;;;1.10;99.90;;;;;;5054505;28;20025;-69
2021/04/09 09:30:42;;;;;;;4.15;1.50;;;1.10;99.90;;;;;;5054292;28;20494;-69
2021/04/09 09:33:23;;;;;;;2.50;1.33;;;1.00;99.90;;;;;;5054346;28;20027;-69
2021/04/09 09:36:06;;;;;;;2.25;1.60;;;1.00;99.90;;;;;;5054148;28;20455;-69
2021/04/09 09:38:53;;;;;;;2.03;1.20;;;1.00;99.90;;;;;;5054239;28;20013;-69
2021/04/09 09:41:44;;;;;;;2.55;1.50;;;1.00;99.90;;;;;;5054004;28;20563;-69
2021/04/09 09:44:33;;;;;;;1.38;1.27;;;1.10;99.90;;;;;;5054464;28;20442;-69
2021/04/09 09:47:20;;;;;;;1.42;1.23;;;1.10;99.90;;;;;;5053890;28;20059;-69
2021/04/09 09:50:19;;;;;;;3.53;1.20;;;1.10;99.90;;;;;;5052868;28;20080;-69
2021/04/09 09:53:04;;;;;;;2.80;1.42;;;1.00;99.90;;;;;;5051419;28;20017;-69
2021/04/09 09:55:45;;;;;;;2.85;1.50;;;1.00;99.90;;;;;;5052157;28;20024;-69
2021/04/09 09:58:16;;;;;;;3.83;1.40;;;1.00;99.90;;;;;;5052323;28;20036;-69
2021/04/09 10:00:45;;;;;;;3.85;1.83;;;0.90;99.90;;;;;;5049528;28;20428;-69
2021/04/09 10:03:28;;;;;;;5.55;2.22;;;1.00;99.90;;;;;;5053305;28;20025;-69
2021/04/09 10:05:55;;;;;;;8.80;1.90;;;1.00;99.90;;;;;;5052354;28;20044;-69
2021/04/09 10:08:22;;;;;;;4.28;1.55;;;1.00;99.90;;;;;;5053506;28;20025;-70
2021/04/09 10:10:56;;;;;;;2.78;1.60;;;1.00;99.90;;;;;;5052953;28;20033;-69
2021/04/09 10:13:31;;;;;;;2.33;1.80;;;1.00;99.90;;;;;;5053526;28;20021;-67
2021/04/09 10:16:12;;;;;;;6.35;1.88;;;1.00;99.90;;;;;;5052610;28;20029;-68
2021/04/09 10:18:41;;;;;;;2.88;1.52;;;1.00;99.90;;;;;;5051544;28;20039;-69
2021/04/09 10:21:18;;;;;;;3.05;1.55;;;1.00;99.90;;;;;;5052716;28;20021;-69
2021/04/09 10:23:46;;;;;;;3.85;1.52;;;1.00;99.90;;;;;;5053287;28;20021;-67
2021/04/09 10:26:14;;;;;;;3.95;1.50;;;1.00;99.90;;;;;;5053433;28;20383;-69
2021/04/09 10:28:44;;;;;;;3.40;1.85;;;1.00;99.90;;;;;;5053188;28;20032;-68
2021/04/09 10:31:15;;;;;;;4.95;1.52;;;1.00;99.90;;;;;;5053156;28;20033;-69
2021/04/09 10:33:52;;;;;;;3.25;1.60;;;1.00;99.90;;;;;;5053176;28;20021;-68
2021/04/09 10:36:27;;;;;;;3.50;1.42;;;1.00;99.90;;;;;;5052474;28;20025;-69
2021/04/09 10:38:55;;;;;;;2.55;1.60;;;1.00;99.90;;;;;;5052697;28;20037;-69
2021/04/09 10:41:43;;;;;;;4.32;1.98;;;1.00;99.90;;;;;;5052296;28;20025;-68
2021/04/09 10:44:28;;;;;;;1.80;1.35;;;1.00;99.90;;;;;;5051404;28;20023;-68
2021/04/09 10:47:00;;;;;;;3.00;1.65;;;1.00;99.90;;;;;;5051692;28;20028;-69
2021/04/09 10:49:32;;;;;;;3.13;2.03;;;1.00;99.90;;;;;;5050666;28;20469;-69
2021/04/09 10:52:08;;;;;;;4.45;1.45;;;1.00;99.90;;;;;;5032711;28;20508;-68
2021/04/09 10:54:36;;;;;;;3.13;1.40;;;0.90;99.90;;;;;;5032171;28;20060;-69
2021/04/09 10:57:10;;;;;;;4.00;1.45;;;1.00;99.90;;;;;;5032641;28;20036;-69
2021/04/09 10:59:40;;;;;;;2.50;1.42;;;1.00;99.90;;;;;;5032745;28;20520;-69
2021/04/09 11:02:09;;;;;;;4.75;1.92;;;1.00;99.90;;;;;;5032602;28;20152;-68
2021/04/09 11:04:37;;;;;;;1.50;1.17;;;1.00;99.90;;;;;;5032690;28;20114;-68
2021/04/09 11:07:08;;;;;;;2.67;1.73;;;1.00;99.90;;;;;;5041250;28;20045;-69
2021/04/09 11:09:43;;;;;;;4.93;1.60;;;1.00;99.90;;;;;;5058378;28;20036;-69
2021/04/09 11:12:29;;;;;;;4.85;1.40;;;1.00;99.90;;;;;;5052550;28;20068;-69
2021/04/09 11:15:10;;;;;;;2.20;1.38;;;1.00;99.90;;;;;;5052138;28;20025;-69
2021/04/09 11:17:39;;;;;;;3.58;1.50;;;1.20;99.90;;;;;;5052387;28;20029;-69
2021/04/09 11:20:26;;;;;;;4.18;1.20;;;1.10;99.90;;;;;;5052095;28;20060;-69
2021/04/09 11:23:04;;;;;;;4.45;1.50;;;1.10;99.90;;;;;;5052237;28;20021;-69
2021/04/09 11:25:41;;;;;;;2.72;1.58;;;1.10;99.90;;;;;;5052186;28;20063;-68
2021/04/09 11:28:19;;;;;;;3.95;1.42;;;1.10;99.90;;;;;;5050847;28;20115;-68
2021/04/09 11:30:58;;;;;;;2.30;1.50;;;1.10;99.90;;;;;;5052387;28;20040;-68
2021/04/09 11:33:40;;;;;;;1.95;1.45;;;1.10;99.90;;;;;;5052151;28;20502;-68
2021/04/09 11:36:19;;;;;;;4.05;1.45;;;1.10;99.90;;;;;;5052180;28;20029;-68
2021/04/09 11:38:45;;;;;;;1.48;1.23;;;1.10;99.90;;;;;;5051980;28;20380;-68
2021/04/09 11:41:45;;;;;;;2.75;1.40;;;1.10;99.90;;;;;;5051752;28;20017;-67
2021/04/09 11:44:33;;;;;;;2.63;1.30;;;1.20;99.90;;;;;;5061064;28;20087;-69
2021/04/09 11:47:23;;;;;;;2.08;1.50;;;1.10;99.90;;;;;;5051502;28;20032;-69
2021/04/09 11:50:16;;;;;;;2.13;1.30;;;1.10;99.90;;;;;;5051159;28;20037;-67
2021/04/09 11:52:51;;;;;;;5.22;1.58;;;1.20;99.90;;;;;;5050141;28;20028;-67
2021/04/09 11:55:17;;;;;;;2.83;1.40;;;1.50;99.90;;;;;;5049436;28;20025;-67
2021/04/09 11:57:43;;;;;;;5.05;1.50;;;1.40;99.90;;;;;;5051573;28;20028;-68
2021/04/09 12:00:22;;;;;;;1.67;1.20;;;1.30;99.90;;;;;;5051159;28;20017;-68
2021/04/09 12:03:03;;;;;;;1.48;1.20;;;1.30;99.90;;;;;;5051784;28;20025;-67
2021/04/09 12:05:32;;;;;;;2.60;1.10;;;1.30;99.90;;;;;;5053315;28;20070;-67
2021/04/09 12:07:58;;;;;;;1.77;1.20;;;1.30;99.90;;;;;;5055894;28;20107;-68
2021/04/09 12:10:27;;;;;;;2.75;1.35;;;1.30;99.90;;;;;;5056112;28;20060;-67
2021/04/09 12:12:53;;;;;;;1.52;1.20;;;1.30;99.90;;;;;;5055561;28;20115;-65
2021/04/09 12:15:22;;;;;;;1.50;1.30;;;1.30;99.90;;;;;;5055732;28;20119;-67
2021/04/09 12:17:48;;;;;;;3.45;1.63;;;1.50;99.90;;;;;;5055381;28;20101;-68
2021/04/09 12:20:19;;;;;;;1.60;1.35;;;1.40;99.90;;;;;;5054992;28;20498;-68
2021/04/09 12:22:46;;;;;;;1.88;1.42;;;1.40;99.90;;;;;;5055205;28;20036;-67
2021/04/09 12:25:14;;;;;;;3.10;1.58;;;1.30;99.90;;;;;;5055172;28;20044;-69
2021/04/09 12:27:41;;;;;;;2.83;1.42;;;1.40;99.90;;;;;;5055191;28;20013;-69
2021/04/09 12:30:09;;;;;;;6.20;1.65;;;1.40;99.90;;;;;;5054587;28;20048;-69
2021/04/09 12:32:35;;;;;;;2.05;1.40;;;1.40;99.90;;;;;;5052576;28;20088;-69
2021/04/09 12:35:01;;;;;;;1.38;1.02;;;1.40;99.90;;;;;;5055033;28;20398;-69
2021/04/09 12:37:27;;;;;;;2.40;1.40;;;1.40;99.90;;;;;;5055015;28;20036;-69
2021/04/09 12:39:53;;;;;;;2.22;1.20;;;1.40;99.90;;;;;;5055159;28;20057;-69
2021/04/09 12:42:19;;;;;;;4.15;1.20;;;1.40;99.90;;;;;;5055208;28;20025;-70
2021/04/09 12:44:46;;;;;;;1.80;1.20;;;1.40;99.90;;;;;;5055171;28;20027;-76
2021/04/09 12:47:11;;;;;;;2.25;1.20;;;1.40;99.90;;;;;;5054813;28;20394;-68
2021/04/09 12:49:37;;;;;;;1.45;1.20;;;1.50;99.90;;;;;;5056542;28;20021;-68
2021/04/09 12:52:05;;;;;;;3.45;1.25;;;1.50;99.90;;;;;;5062974;28;20025;-68
2021/04/09 12:54:31;;;;;;;3.38;1.35;;;1.50;99.90;;;;;;5063286;28;20469;-67
2021/04/09 12:56:57;;;;;;;1.88;1.00;;;1.50;99.90;;;;;;5065528;28;20024;-67
2021/04/09 12:59:22;;;;;;;1.92;1.17;;;1.50;99.90;;;;;;5063230;28;20021;-68
2021/04/09 13:01:49;;;;;;;1.30;0.90;;;1.50;99.90;;;;;;5064908;28;20086;-67
2021/04/09 13:04:15;;;;;;;2.33;1.17;;;1.50;99.90;;;;;;5063697;28;20017;-68
2021/04/09 13:06:41;;;;;;;1.80;1.20;;;1.60;99.90;;;;;;5063280;28;20096;-68
2021/04/09 13:09:07;;;;;;;1.88;1.10;;;1.50;99.90;;;;;;5061784;28;20036;-67
2021/04/09 13:11:34;;;;;;;2.45;1.10;;;1.60;99.90;;;;;;5062698;28;20056;-68
2021/04/09 13:14:00;;;;;;;0.85;0.85;;;1.60;99.90;;;;;;5064195;28;20496;-68
2021/04/09 13:16:26;;;;;;;1.17;0.80;;;1.70;99.90;;;;;;5062283;28;20024;-67
2021/04/09 13:18:52;;;;;;;1.55;0.90;;;1.70;99.90;;;;;;5063770;28;20107;-68
2021/04/09 13:21:20;;;;;;;1.60;0.82;;;1.80;99.90;;;;;;5064092;28;20108;-68
2021/04/09 13:23:47;;;;;;;2.72;1.00;;;1.80;99.90;;;;;;5062843;28;20013;-68
2021/04/09 13:26:13;;;;;;;1.45;1.00;;;1.80;99.90;;;;;;5062251;28;20471;-69
2021/04/09 13:28:39;;;;;;;2.63;1.00;;;1.80;99.90;;;;;;5062743;28;20025;-68
2021/04/09 13:31:05;;;;;;;1.00;0.95;;;1.80;99.90;;;;;;5062190;28;20028;-67
2021/04/09 13:33:36;;;;;;;1.27;0.98;;;1.80;99.90;;;;;;5064685;28;20025;-68
2021/04/09 13:36:05;;;;;;;1.33;0.80;;;1.90;99.90;;;;;;5059879;28;20036;-68
2021/04/09 13:38:32;;;;;;;1.02;0.95;;;1.80;99.90;;;;;;5060303;28;20025;-66
2021/04/09 13:40:57;;;;;;;0.95;0.80;;;1.90;99.90;;;;;;5063904;28;20013;-69
2021/04/09 13:43:23;;;;;;;0.88;0.88;;;1.90;99.90;;;;;;5062437;28;20677;-67
2021/04/09 13:45:50;;;;;;;2.75;0.70;;;1.90;99.90;;;;;;5064229;28;20617;-68
2021/04/09 13:48:17;;;;;;;0.75;0.75;;;1.90;99.90;;;;;;5063425;28;20457;-67
2021/04/09 13:50:44;;;;;;;0.98;0.80;;;2.00;99.90;;;;;;5062271;28;20504;-67
2021/04/09 13:53:10;;;;;;;0.77;0.60;;;2.00;99.90;;;;;;5059754;28;20024;-67
2021/04/09 13:55:37;;;;;;;1.00;0.80;;;2.10;99.90;;;;;;5062590;28;20059;-67
2021/04/09 13:58:04;;;;;;;1.67;1.08;;;2.10;99.90;;;;;;5055506;28;20488;-67
2021/04/09 14:00:30;;;;;;;1.25;0.90;;;2.10;99.90;;;;;;5052930;28;20029;-67
2021/04/09 14:02:56;;;;;;;4.07;1.00;;;2.20;99.90;;;;;;5053745;28;20050;-67
2021/04/09 14:05:22;;;;;;;2.58;1.10;;;2.30;99.90;;;;;;5052974;28;20111;-67
2021/04/09 14:07:48;;;;;;;0.95;0.70;;;2.30;99.90;;;;;;5053546;28;20171;-67
2021/04/09 14:10:15;;;;;;;5.35;1.08;;;2.30;99.90;;;;;;5053158;28;20456;-67
2021/04/09 14:12:42;;;;;;;0.70;0.70;;;2.40;99.90;;;;;;5052974;28;20076;-67
2021/04/09 14:15:09;;;;;;;3.00;1.02;;;2.40;99.90;;;;;;5052862;28;20025;-67
2021/04/09 14:17:35;;;;;;;2.25;1.10;;;2.40;99.90;;;;;;5052556;28;20111;-67
2021/04/09 14:20:01;;;;;;;2.67;1.10;;;2.40;99.90;;;;;;5052946;28;20114;-67
2021/04/09 14:22:29;;;;;;;3.00;1.30;;;2.50;99.90;;;;;;5048448;28;20119;-67
2021/04/09 14:24:57;;;;;;;3.53;1.40;;;2.50;99.90;;;;;;5052036;28;20052;-69
2021/04/09 14:27:24;;;;;;;3.05;1.15;;;2.50;99.90;;;;;;5052506;28;20501;-68
2021/04/09 14:29:50;;;;;;;4.82;0.80;;;2.50;99.90;;;;;;5051953;28;20028;-68
2021/04/09 14:32:16;;;;;;;2.55;0.90;;;2.50;99.90;;;;;;5052247;28;20025;-68
2021/04/09 14:34:41;;;;;;;2.90;0.98;;;2.60;99.90;;;;;;5052578;28;20124;-69
2021/04/09 14:37:07;;;;;;;3.17;1.13;;;2.60;99.90;;;;;;5052470;28;20055;-68
2021/04/09 14:39:33;;;;;;;1.77;0.88;;;2.60;99.90;;;;;;5052571;28;20067;-66
2021/04/09 14:41:58;;;;;;;2.88;0.90;;;2.60;99.90;;;;;;5052527;28;20053;-66
2021/04/09 14:44:25;;;;;;;1.27;1.02;;;2.70;99.90;;;;;;5052260;28;20031;-66
2021/04/09 14:46:51;;;;;;;1.25;0.90;;;2.70;99.90;;;;;;5052328;28;20370;-66
2021/04/09 14:49:16;;;;;;;4.25;0.80;;;2.70;99.90;;;;;;5052251;28;20047;-68
2021/04/09 14:51:42;;;;;;;9.57;1.65;;;2.70;99.90;;;;;;5052485;28;20872;-66
2021/04/09 14:54:08;;;;;;;4.00;0.80;;;2.70;99.90;;;;;;5052061;28;20070;-66
2021/04/09 14:56:33;;;;;;;1.30;0.73;;;2.70;99.90;;;;;;5052085;28;20388;-67
2021/04/09 14:58:59;;;;;;;1.10;0.90;;;2.70;99.90;;;;;;5060415;28;20044;-65
2021/04/09 15:01:25;;;;;;;1.52;1.00;;;2.80;99.90;;;;;;5060811;28;20476;-67
2021/04/09 15:03:51;;;;;;;1.25;0.95;;;2.80;99.90;;;;;;5061547;28;20025;-67
2021/04/09 15:06:18;;;;;;;2.58;1.00;;;2.80;99.90;;;;;;5062480;28;20017;-65
2021/04/09 15:08:44;;;;;;;1.15;0.88;;;2.80;99.90;;;;;;5060573;28;20074;-67
2021/04/09 15:11:10;;;;;;;1.15;0.70;;;2.80;99.90;;;;;;5061815;28;20113;-67
2021/04/09 15:13:36;;;;;;;1.92;0.70;;;2.80;99.90;;;;;;5061901;28;20025;-67
2021/04/09 15:16:03;;;;;;;2.60;1.13;;;2.70;99.90;;;;;;5060527;28;20066;-66
2021/04/09 15:18:30;;;;;;;5.22;0.90;;;2.80;99.90;;;;;;5061782;28;20020;-65
2021/04/09 15:20:58;;;;;;;5.45;1.20;;;2.80;99.90;;;;;;5061834;28;20036;-67
2021/04/09 15:23:25;;;;;;;3.95;1.13;;;2.80;99.90;;;;;;5060262;28;20114;-67
2021/04/09 15:25:50;;;;;;;4.38;1.30;;;2.80;99.90;;;;;;5061497;28;20020;-67
2021/04/09 15:28:17;;;;;;;2.63;1.20;;;2.80;99.90;;;;;;5061715;28;20021;-68
2021/04/09 15:30:43;;;;;;;5.05;1.23;;;2.80;99.90;;;;;;5061246;28;20036;-68
2021/04/09 15:33:08;;;;;;;1.38;0.88;;;2.80;99.90;;;;;;5060822;28;20020;-68
2021/04/09 15:35:34;;;;;;;3.47;0.93;;;2.80;99.90;;;;;;5060376;28;20021;-70
2021/04/09 15:38:00;;;;;;;2.42;1.00;;;2.70;99.90;;;;;;5057676;28;20029;-68
2021/04/09 15:40:26;;;;;;;3.47;1.02;;;2.80;99.90;;;;;;5062606;28;20051;-68
2021/04/09 15:42:52;;;;;;;4.10;1.02;;;2.80;99.90;;;;;;5061520;28;20021;-68
2021/04/09 15:45:18;;;;;;;2.83;0.90;;;2.80;99.90;;;;;;5060092;28;20392;-68
2021/04/09 15:47:43;;;;;;;2.78;0.90;;;2.80;99.90;;;;;;5061891;28;20438;-70
2021/04/09 15:50:14;;;;;;;2.78;1.00;;;2.90;99.90;;;;;;5060666;28;20033;-68
2021/04/09 15:52:41;;;;;;;3.30;0.90;;;2.90;99.90;;;;;;5060123;28;20094;-67
2021/04/09 15:55:08;;;;;;;4.47;1.10;;;2.80;99.90;;;;;;5061615;28;20471;-68
2021/04/09 15:57:33;;;;;;;5.53;1.63;;;2.90;99.90;;;;;;5061099;28;20029;-68
2021/04/09 16:00:00;;;;;;;7.13;1.00;;;2.90;99.90;;;;;;5060422;28;20032;-68
2021/04/09 16:02:27;;;;;;;1.40;0.75;;;3.00;99.90;;;;;;5057562;28;20045;-68
2021/04/09 16:04:53;;;;;;;3.42;0.98;;;3.10;99.90;;;;;;5060752;28;20411;-68
2021/04/09 16:07:19;;;;;;;3.95;1.15;;;3.10;99.90;;;;;;5061740;28;20047;-66
2021/04/09 16:09:45;;;;;;;1.77;1.13;;;3.10;99.90;;;;;;5059848;28;20423;-68
2021/04/09 16:12:11;;;;;;;2.67;1.15;;;4.10;99.90;;;;;;5060787;28;20091;-69
2021/04/09 16:14:37;;;;;;;2.70;1.10;;;4.10;99.90;;;;;;5061473;28;20025;-68
2021/04/09 16:17:03;;;;;;;4.03;1.20;;;3.80;99.90;;;;;;5059688;28;20020;-67
2021/04/09 16:19:28;;;;;;;1.88;0.95;;;3.70;99.90;;;;;;5061510;28;20090;-66
2021/04/09 16:21:54;;;;;;;3.45;1.13;;;3.60;99.90;;;;;;5061247;28;20040;-66
2021/04/09 16:24:20;;;;;;;3.22;1.08;;;3.60;99.90;;;;;;5059665;28;20033;-68
2021/04/09 16:26:46;;;;;;;4.03;1.05;;;3.60;99.90;;;;;;5059798;28;20025;-67
2021/04/09 16:29:12;;;;;;;3.20;0.90;;;4.20;99.90;;;;;;5061020;28;20029;-66
2021/04/09 16:31:38;;;;;;;4.97;1.30;;;4.20;99.90;;;;;;5061353;28;20025;-67
2021/04/09 16:34:04;;;;;;;3.50;1.88;;;4.10;99.90;;;;;;5059648;28;20060;-67
2021/04/09 16:36:29;;;;;;;3.85;1.10;;;3.90;99.90;;;;;;5061133;28;20475;-66
2021/04/09 16:38:55;;;;;;;4.25;1.13;;;3.90;99.90;;;;;;5060913;28;20075;-65
2021/04/09 16:41:21;;;;;;;3.78;1.65;;;3.80;99.90;;;;;;5059352;28;20083;-67
2021/04/09 16:43:47;;;;;;;3.25;0.82;;;3.80;99.90;;;;;;5061370;28;20013;-66
2021/04/09 16:46:12;;;;;;;1.52;0.90;;;3.80;99.90;;;;;;5060668;28;20116;-66
2021/04/09 16:48:38;;;;;;;2.35;1.00;;;3.80;99.90;;;;;;5060244;28;20073;-66
2021/04/09 16:51:04;;;;;;;2.47;0.88;;;3.80;99.90;;;;;;5061269;28;20520;-66
2021/04/09 16:53:30;;;;;;;1.55;0.80;;;3.70;99.90;;;;;;5058049;28;20074;-66
2021/04/09 16:55:56;;;;;;;0.80;0.65;;;3.70;99.90;;;;;;5054729;28;20111;-66
2021/04/09 16:58:22;;;;;;;1.48;0.80;;;3.70;99.90;;;;;;5053471;28;20032;-66
2021/04/09 17:00:48;;;;;;;1.40;0.98;;;3.70;99.90;;;;;;5054596;28;20029;-66
2021/04/09 17:03:13;;;;;;;0.88;0.80;;;3.70;99.90;;;;;;5054601;28;20033;-66
2021/04/09 17:05:43;;;;;;;1.40;0.82;;;3.80;99.90;;;;;;5054456;28;20059;-65
2021/04/09 17:08:09;;;;;;;1.08;0.73;;;3.70;99.90;;;;;;5056757;28;20150;-68
2021/04/09 17:10:34;;;;;;;2.28;0.77;;;3.70;99.90;;;;;;5054198;28;20128;-68
2021/04/09 17:13:00;;;;;;;1.83;0.73;;;3.70;99.90;;;;;;5056634;28;20045;-67
2021/04/09 17:15:26;;;;;;;0.85;0.68;;;3.70;99.90;;;;;;5054538;28;20032;-67
2021/04/09 17:17:52;;;;;;;2.10;1.00;;;3.70;99.90;;;;;;5054492;28;20377;-67